Time;durP1;ratioP1;P1;durP2;ratioP2;P2;SDS_P1;SDS_P2;PMS_P1;PMS_P2;Temp;Humidity;BMP_temperature;BMP_pressure;BME280_temperature;BME280_humidity;BME280_pressure;Samples;Min_cycle;Max_cycle;Signal;HPM_P1;HPM_P2
2022/05/04 00:01:48;;;;;;;37.43;34.90;;;6.40;91.00;;;;;;4992400;28;20546;-76
2022/05/04 00:04:17;;;;;;;44.97;42.57;;;6.40;91.10;;;;;;4994496;28;20574;-76
2022/05/04 00:06:45;;;;;;;32.37;30.23;;;6.40;91.10;;;;;;5005687;28;20818;-76
2022/05/04 00:09:13;;;;;;;32.13;30.03;;;6.40;91.20;;;;;;4993388;28;20977;-76
2022/05/04 00:11:42;;;;;;;35.77;33.60;;;6.40;91.20;;;;;;4993012;28;20464;-76
2022/05/04 00:14:11;;;;;;;35.97;33.77;;;6.40;91.20;;;;;;4992077;28;20504;-76
2022/05/04 00:16:40;;;;;;;34.73;32.47;;;6.40;91.30;;;;;;4993425;28;20446;-76
2022/05/04 00:19:08;;;;;;;23.10;21.13;;;6.40;91.30;;;;;;4991916;28;20486;-76
2022/05/04 00:21:37;;;;;;;24.70;22.87;;;6.30;91.40;;;;;;4993060;28;20460;-76
2022/05/04 00:24:05;;;;;;;20.57;18.67;;;6.30;91.40;;;;;;4991978;28;20509;-76
2022/05/04 00:26:33;;;;;;;22.87;21.00;;;6.40;91.50;;;;;;4993473;28;20980;-76
2022/05/04 00:29:01;;;;;;;26.90;25.03;;;6.30;91.50;;;;;;4989666;28;20482;-76
2022/05/04 00:31:30;;;;;;;20.77;18.10;;;6.30;91.50;;;;;;5003562;28;20492;-76
2022/05/04 00:33:59;;;;;;;23.83;21.93;;;6.40;91.60;;;;;;5001014;28;20482;-76
2022/05/04 00:36:27;;;;;;;22.33;20.60;;;6.40;91.60;;;;;;5011194;28;20447;-76
2022/05/04 00:38:55;;;;;;;27.40;25.20;;;6.40;91.70;;;;;;5012593;28;20984;-76
2022/05/04 00:41:24;;;;;;;28.63;26.63;;;6.40;91.70;;;;;;4993870;28;20984;-76
2022/05/04 00:43:52;;;;;;;26.17;24.00;;;6.40;91.70;;;;;;4991562;28;20486;-76
2022/05/04 00:46:21;;;;;;;28.70;26.57;;;6.40;91.80;;;;;;4991471;28;20904;-76
2022/05/04 00:48:50;;;;;;;34.13;31.97;;;6.40;91.80;;;;;;4992624;28;20454;-76
2022/05/04 00:51:20;;;;;;;22.80;20.87;;;6.40;91.90;;;;;;4991595;28;20445;-76
2022/05/04 00:53:48;;;;;;;27.60;25.50;;;6.40;92.00;;;;;;4991578;28;20767;-76
2022/05/04 00:56:17;;;;;;;35.73;33.63;;;6.40;92.00;;;;;;4997437;28;20528;-76
2022/05/04 00:58:56;;;;;;;24.40;22.40;;;6.40;92.10;;;;;;5012382;28;20471;-76
2022/05/04 01:01:26;;;;;;;25.50;23.40;;;6.40;92.10;;;;;;5010921;28;20874;-77
2022/05/04 01:03:55;;;;;;;31.03;29.07;;;6.40;92.20;;;;;;5012403;28;20442;-76
2022/05/04 01:06:25;;;;;;;34.47;32.17;;;6.40;92.20;;;;;;5010675;28;20474;-76
2022/05/04 01:08:55;;;;;;;32.77;30.47;;;6.40;92.30;;;;;;5010923;28;20523;-76
2022/05/04 01:11:23;;;;;;;25.80;24.07;;;6.40;92.30;;;;;;5010657;28;20449;-76
2022/05/04 01:14:02;;;;;;;18.63;16.80;;;6.40;92.30;;;;;;5010708;28;20541;-76
2022/05/04 01:16:31;;;;;;;30.77;28.77;;;6.40;92.40;;;;;;5010529;28;20449;-76
2022/05/04 01:19:00;;;;;;;29.53;26.87;;;6.40;92.40;;;;;;5011622;28;20455;-76
2022/05/04 01:21:30;;;;;;;31.90;29.63;;;6.40;92.50;;;;;;5000950;28;20536;-76
2022/05/04 01:24:00;;;;;;;20.37;18.73;;;6.40;92.50;;;;;;4990958;28;20442;-76
2022/05/04 01:26:28;;;;;;;21.53;19.97;;;6.40;92.60;;;;;;4990907;28;20501;-76
2022/05/04 01:28:56;;;;;;;21.10;19.40;;;6.40;92.70;;;;;;4991968;28;20469;-76
2022/05/04 01:31:25;;;;;;;22.77;21.00;;;6.50;92.80;;;;;;4990767;28;20949;-76
2022/05/04 01:33:53;;;;;;;17.93;14.70;;;6.50;92.80;;;;;;4992028;28;20462;-76
2022/05/04 01:36:21;;;;;;;23.97;21.97;;;6.50;92.90;;;;;;4991951;28;20457;-76
2022/05/04 01:38:49;;;;;;;18.20;16.57;;;6.50;92.90;;;;;;4992031;28;20523;-76
2022/05/04 01:44:04;;;;;;;20.90;19.10;;;6.60;93.00;;;;;;4991883;28;20512;-76
2022/05/04 01:46:33;;;;;;;23.77;22.10;;;6.60;93.00;;;;;;5001703;28;20468;-76
2022/05/04 01:49:01;;;;;;;18.90;17.23;;;6.60;93.10;;;;;;5010022;28;20464;-76
2022/05/04 01:51:29;;;;;;;22.07;20.37;;;6.60;93.10;;;;;;5010436;28;20794;-76
2022/05/04 01:53:57;;;;;;;13.10;9.67;;;6.60;93.20;;;;;;5009975;28;20458;-77
2022/05/04 01:56:27;;;;;;;17.70;13.00;;;6.70;93.30;;;;;;5011568;28;20447;-77
2022/05/04 01:58:56;;;;;;;15.07;12.47;;;6.70;93.40;;;;;;5011120;28;20456;-76
2022/05/04 02:01:24;;;;;;;15.30;13.73;;;6.70;93.40;;;;;;4990738;28;20490;-76
2022/05/04 02:03:52;;;;;;;17.23;15.47;;;6.70;93.40;;;;;;4990559;28;20449;-76
2022/05/04 02:06:21;;;;;;;14.80;10.07;;;6.70;93.40;;;;;;4990232;28;20632;-76
2022/05/04 02:08:49;;;;;;;15.20;13.17;;;6.70;93.50;;;;;;4990030;28;20457;-76
2022/05/04 02:11:18;;;;;;;13.47;9.20;;;6.70;93.50;;;;;;5005059;28;20554;-76
2022/05/04 02:13:47;;;;;;;15.53;11.80;;;6.70;93.60;;;;;;5009636;28;20449;-76
2022/05/04 02:16:16;;;;;;;15.10;10.27;;;6.70;93.60;;;;;;4994883;28;20486;-76
2022/05/04 02:18:44;;;;;;;16.30;11.13;;;6.80;93.70;;;;;;4990391;28;20487;-76
2022/05/04 02:21:12;;;;;;;12.50;10.00;;;6.70;93.60;;;;;;5008613;28;20467;-76
2022/05/04 02:23:40;;;;;;;15.60;12.63;;;6.80;93.70;;;;;;5007945;28;20531;-76
2022/05/04 02:26:09;;;;;;;15.03;11.57;;;6.80;93.80;;;;;;5008267;28;20498;-77
2022/05/04 02:28:37;;;;;;;11.90;8.70;;;6.80;93.80;;;;;;5010152;28;20802;-76
2022/05/04 02:31:07;;;;;;;15.47;12.67;;;6.80;93.80;;;;;;5009545;28;20457;-76
2022/05/04 02:33:35;;;;;;;16.57;9.70;;;6.80;93.90;;;;;;5010862;28;20856;-77
2022/05/04 02:38:50;;;;;;;18.77;16.97;;;6.80;93.90;;;;;;5006142;28;20459;-76
2022/05/04 02:41:18;;;;;;;14.57;12.40;;;6.90;94.00;;;;;;5010040;28;20447;-76
2022/05/04 02:43:46;;;;;;;14.17;12.20;;;6.80;94.00;;;;;;5010648;28;20439;-76
2022/05/04 02:46:17;;;;;;;16.10;11.17;;;6.90;94.00;;;;;;5009614;28;20485;-76
2022/05/04 02:48:46;;;;;;;15.07;12.30;;;6.90;94.00;;;;;;5009461;28;20451;-76
2022/05/04 02:51:15;;;;;;;17.47;13.17;;;6.90;94.00;;;;;;5010614;28;20450;-76
2022/05/04 02:53:43;;;;;;;14.67;11.17;;;6.90;94.00;;;;;;5010715;28;20443;-76
2022/05/04 02:56:13;;;;;;;16.03;12.30;;;6.90;94.10;;;;;;5000896;28;20445;-77
2022/05/04 02:58:41;;;;;;;16.87;13.70;;;6.90;94.40;;;;;;5008484;28;20455;-76
2022/05/04 03:03:54;;;;;;;15.30;12.27;;;6.90;94.10;;;;;;4988829;28;20444;-76
2022/05/04 03:06:23;;;;;;;16.10;12.93;;;7.00;94.20;;;;;;4989505;28;20852;-76
2022/05/04 03:08:51;;;;;;;14.50;9.43;;;6.90;94.10;;;;;;4990724;28;22222;-77
2022/05/04 03:14:07;;;;;;;15.33;11.50;;;7.00;94.20;;;;;;5010356;28;20442;-77
2022/05/04 03:16:35;;;;;;;14.07;10.40;;;7.00;94.20;;;;;;5007872;28;20453;-76
2022/05/04 03:19:06;;;;;;;16.50;12.47;;;7.00;94.20;;;;;;5009138;28;21008;-76
2022/05/04 03:21:34;;;;;;;14.13;11.70;;;7.00;94.30;;;;;;5008915;28;20437;-76
2022/05/04 03:24:03;;;;;;;22.40;12.27;;;7.00;94.30;;;;;;5005472;28;20461;-76
2022/05/04 03:26:31;;;;;;;14.13;12.23;;;7.00;94.30;;;;;;5004403;28;20492;-76
2022/05/04 03:28:59;;;;;;;15.00;9.10;;;7.00;94.30;;;;;;5008846;28;20476;-76
2022/05/04 03:31:27;;;;;;;16.03;14.37;;;7.00;94.30;;;;;;5009038;28;20461;-76
2022/05/04 03:33:56;;;;;;;14.27;10.07;;;7.00;94.30;;;;;;5011897;28;20892;-76
2022/05/04 03:36:26;;;;;;;20.23;12.60;;;7.00;94.30;;;;;;5012289;28;20448;-76
2022/05/04 03:38:54;;;;;;;16.83;13.27;;;6.90;94.20;;;;;;5013443;28;20470;-76
2022/05/04 03:41:22;;;;;;;17.10;11.13;;;6.90;94.20;;;;;;4996160;28;20570;-77
2022/05/04 03:43:50;;;;;;;15.37;13.80;;;6.90;94.20;;;;;;4992591;28;20483;-76
2022/05/04 03:46:20;;;;;;;16.30;14.60;;;6.90;94.20;;;;;;4993647;28;20475;-76
2022/05/04 03:48:50;;;;;;;15.83;14.13;;;6.90;94.20;;;;;;4992365;28;20512;-76
2022/05/04 03:51:19;;;;;;;14.67;9.87;;;6.90;94.20;;;;;;5012777;28;20524;-76
2022/05/04 03:53:50;;;;;;;18.27;13.37;;;6.90;94.20;;;;;;5013082;28;20449;-76
2022/05/04 03:56:19;;;;;;;16.83;13.03;;;6.80;94.10;;;;;;5013320;28;20420;-76
2022/05/04 03:58:48;;;;;;;16.67;13.37;;;6.80;94.10;;;;;;5013174;28;20447;-76
2022/05/04 04:01:17;;;;;;;15.57;13.73;;;6.80;94.10;;;;;;5012302;28;20446;-76
2022/05/04 04:03:45;;;;;;;15.77;14.17;;;6.70;94.10;;;;;;5011873;28;20454;-76
2022/05/04 04:06:13;;;;;;;13.40;12.00;;;6.70;94.10;;;;;;5011574;28;20864;-76
2022/05/04 04:08:50;;;;;;;25.67;23.60;;;6.70;94.10;;;;;;5011673;28;20982;-76
2022/05/04 04:11:19;;;;;;;16.33;14.63;;;6.70;94.10;;;;;;5000994;28;20942;-76
2022/05/04 04:13:48;;;;;;;16.33;14.30;;;6.60;94.00;;;;;;5011539;28;20439;-76
2022/05/04 04:16:17;;;;;;;17.97;16.17;;;6.60;94.10;;;;;;5010845;28;20534;-76
2022/05/04 04:18:45;;;;;;;17.47;13.03;;;6.60;94.10;;;;;;5011658;28;20494;-76
2022/05/04 04:24:01;;;;;;;17.10;15.40;;;6.50;94.00;;;;;;5012893;28;20439;-76
2022/05/04 04:26:29;;;;;;;22.77;20.70;;;6.50;94.00;;;;;;5011391;28;20462;-76
2022/05/04 04:28:58;;;;;;;14.63;11.97;;;6.50;94.00;;;;;;5012918;28;20466;-76
2022/05/04 04:31:26;;;;;;;16.90;15.13;;;6.50;94.10;;;;;;5012696;28;20836;-76
2022/05/04 04:33:55;;;;;;;17.67;16.07;;;6.50;94.10;;;;;;5011364;28;20516;-76
2022/05/04 04:36:23;;;;;;;20.50;18.57;;;6.50;94.10;;;;;;5009496;28;20457;-76
2022/05/04 04:38:51;;;;;;;18.67;16.20;;;6.50;94.20;;;;;;5012012;28;20466;-76
2022/05/04 04:41:21;;;;;;;22.27;20.17;;;6.50;94.20;;;;;;5012647;28;20440;-76
2022/05/04 04:43:49;;;;;;;19.37;14.00;;;6.40;94.20;;;;;;5011358;28;20541;-76
2022/05/04 04:46:17;;;;;;;17.30;15.53;;;6.50;94.30;;;;;;5011450;28;20474;-76
2022/05/04 04:48:45;;;;;;;16.17;14.47;;;6.50;94.30;;;;;;5012233;28;20500;-76
2022/05/04 04:51:14;;;;;;;15.90;13.10;;;6.50;94.30;;;;;;5011069;28;20496;-76
2022/05/04 04:53:42;;;;;;;16.50;13.30;;;6.50;94.40;;;;;;4999152;28;20464;-76
2022/05/04 04:56:10;;;;;;;20.30;14.47;;;6.50;94.40;;;;;;5011628;28;20441;-76
2022/05/04 04:58:39;;;;;;;19.87;17.83;;;6.50;94.50;;;;;;4971973;28;20996;-76
2022/05/04 05:01:08;;;;;;;18.43;13.07;;;6.50;94.60;;;;;;4971848;28;20447;-76
2022/05/04 05:03:36;;;;;;;17.57;15.77;;;6.60;94.70;;;;;;4973187;28;20449;-76
2022/05/04 05:06:04;;;;;;;18.40;14.70;;;6.60;94.80;;;;;;5005869;28;20457;-76
2022/05/04 05:08:32;;;;;;;23.83;21.87;;;6.60;94.80;;;;;;5008287;28;20545;-76
2022/05/04 05:11:00;;;;;;;16.37;10.43;;;6.60;94.90;;;;;;4992575;28;20435;-76
2022/05/04 05:13:30;;;;;;;19.60;12.50;;;6.70;95.00;;;;;;5002392;28;20463;-76
2022/05/04 05:16:07;;;;;;;17.57;15.83;;;6.70;95.10;;;;;;5008978;28;20450;-76
2022/05/04 05:18:37;;;;;;;16.07;11.40;;;6.80;95.20;;;;;;5010605;28;20446;-76
2022/05/04 05:21:06;;;;;;;15.50;12.67;;;6.90;95.30;;;;;;4994552;28;20544;-76
2022/05/04 05:23:34;;;;;;;15.40;8.97;;;6.90;95.30;;;;;;4992568;28;20871;-76
2022/05/04 05:26:02;;;;;;;17.03;10.90;;;7.00;95.40;;;;;;4997146;28;20813;-76
2022/05/04 05:28:30;;;;;;;16.27;11.57;;;7.00;95.40;;;;;;5011728;28;20981;-76
2022/05/04 05:31:01;;;;;;;17.47;8.57;;;7.10;95.50;;;;;;4998355;28;20473;-76
2022/05/04 05:33:29;;;;;;;13.40;8.57;;;7.20;95.50;;;;;;4992120;28;20459;-76
2022/05/04 05:35:57;;;;;;;13.27;8.63;;;7.20;95.50;;;;;;4990610;28;20956;-77
2022/05/04 05:38:27;;;;;;;13.70;7.87;;;7.30;95.60;;;;;;4990879;28;20453;-77
2022/05/04 05:40:55;;;;;;;15.20;8.23;;;7.30;95.60;;;;;;4997661;28;20881;-77
2022/05/04 05:43:25;;;;;;;15.50;8.40;;;7.40;95.70;;;;;;5011315;28;20572;-76
2022/05/04 05:45:53;;;;;;;11.97;6.30;;;7.50;95.70;;;;;;5010217;28;20460;-76
2022/05/04 05:48:23;;;;;;;13.07;7.97;;;7.60;95.70;;;;;;5010108;28;20470;-77
2022/05/04 05:50:51;;;;;;;12.90;7.43;;;7.70;95.70;;;;;;5010001;28;20479;-76
2022/05/04 05:53:19;;;;;;;28.23;8.57;;;7.80;95.70;;;;;;5011657;28;20925;-77
2022/05/04 05:55:47;;;;;;;16.20;7.60;;;7.90;95.80;;;;;;5009522;28;20959;-77
2022/05/04 05:58:16;;;;;;;13.53;7.07;;;7.90;95.70;;;;;;4990785;28;20449;-76
2022/05/04 06:00:44;;;;;;;11.10;6.63;;;8.00;95.70;;;;;;4993635;28;20514;-76
2022/05/04 06:03:13;;;;;;;15.00;7.40;;;8.10;95.70;;;;;;4991644;28;20471;-76
2022/05/04 06:05:42;;;;;;;15.93;6.93;;;8.20;95.70;;;;;;4991823;28;20546;-76
2022/05/04 06:08:11;;;;;;;15.00;7.07;;;8.30;95.70;;;;;;4990239;28;20506;-76
2022/05/04 06:10:39;;;;;;;11.93;6.40;;;8.40;95.70;;;;;;5010886;28;20475;-77
2022/05/04 06:13:08;;;;;;;10.60;5.87;;;8.50;95.60;;;;;;5009843;28;20554;-77
2022/05/04 06:15:36;;;;;;;12.10;6.20;;;8.60;95.50;;;;;;5009774;28;20451;-77
2022/05/04 06:18:05;;;;;;;11.17;5.97;;;8.60;95.40;;;;;;4994145;28;20969;-77
2022/05/04 06:20:33;;;;;;;8.20;4.57;;;8.70;95.30;;;;;;5002663;28;21063;-77
2022/05/04 06:23:02;;;;;;;12.20;6.60;;;9.00;95.40;;;;;;5010349;28;20941;-77
2022/05/04 06:25:31;;;;;;;10.30;5.50;;;9.40;95.60;;;;;;5011245;28;20944;-77
2022/05/04 06:27:59;;;;;;;11.77;4.90;;;9.80;95.70;;;;;;4994691;28;20500;-77
2022/05/04 06:35:58;;;;;;;9.37;4.00;;;10.70;94.80;;;;;;5013262;28;20463;-78
2022/05/04 06:38:28;;;;;;;11.13;4.57;;;11.00;94.50;;;;;;5015782;28;20455;-78
2022/05/04 06:40:57;;;;;;;11.23;4.70;;;11.30;94.40;;;;;;5011255;28;20505;-78
2022/05/04 06:43:25;;;;;;;11.60;4.10;;;11.60;94.40;;;;;;5011381;28;20447;-78
2022/05/04 06:45:54;;;;;;;10.40;4.50;;;11.90;94.20;;;;;;5011962;28;20470;-78
2022/05/04 06:48:22;;;;;;;11.50;3.97;;;12.10;94.00;;;;;;5011485;28;20556;-78
2022/05/04 06:50:50;;;;;;;10.43;3.63;;;12.30;93.70;;;;;;5011617;28;20474;-78
2022/05/04 06:53:18;;;;;;;10.63;4.23;;;12.50;93.50;;;;;;5013467;28;20474;-78
2022/05/04 06:55:48;;;;;;;11.30;4.87;;;12.70;93.40;;;;;;5012074;28;20456;-78
2022/05/04 06:58:16;;;;;;;9.27;4.60;;;12.80;93.00;;;;;;5005223;28;20457;-78
2022/05/04 07:00:44;;;;;;;8.30;4.10;;;12.80;92.80;;;;;;4998009;28;20509;-78
2022/05/04 07:03:12;;;;;;;12.53;4.50;;;12.60;92.40;;;;;;4994661;28;20544;-78
2022/05/04 07:05:41;;;;;;;9.47;4.00;;;12.50;92.20;;;;;;5011276;28;20479;-78
2022/05/04 07:08:09;;;;;;;8.53;4.13;;;12.50;92.10;;;;;;5014061;28;20472;-78
2022/05/04 07:10:37;;;;;;;12.17;4.40;;;12.50;92.00;;;;;;5015071;28;20514;-77
2022/05/04 07:13:07;;;;;;;8.93;4.10;;;12.60;92.00;;;;;;5016125;28;20859;-78
2022/05/04 07:15:35;;;;;;;8.87;3.93;;;12.60;91.60;;;;;;5014755;28;20467;-78
2022/05/04 07:18:04;;;;;;;7.70;2.93;;;12.60;91.50;;;;;;5015873;28;20837;-78
2022/05/04 07:20:32;;;;;;;9.10;4.77;;;12.60;91.40;;;;;;5013021;28;20474;-78
2022/05/04 07:23:00;;;;;;;9.10;3.67;;;12.60;91.30;;;;;;5013857;28;20483;-78
2022/05/04 07:25:31;;;;;;;10.17;3.53;;;12.60;91.10;;;;;;5015930;28;20447;-78
2022/05/04 07:27:59;;;;;;;10.13;3.90;;;12.50;90.90;;;;;;5014097;28;20455;-78
2022/05/04 07:30:28;;;;;;;8.17;3.70;;;12.50;90.90;;;;;;5013948;28;20459;-78
2022/05/04 07:32:57;;;;;;;11.27;4.30;;;12.60;90.70;;;;;;5014243;28;20464;-78
2022/05/04 07:35:25;;;;;;;8.90;3.90;;;12.70;90.80;;;;;;5006870;28;20461;-78
2022/05/04 07:37:53;;;;;;;9.90;3.83;;;12.80;90.70;;;;;;5016520;28;20942;-78
2022/05/04 07:43:07;;;;;;;10.70;3.57;;;12.90;90.60;;;;;;5002492;28;20453;-78
2022/05/04 07:45:36;;;;;;;9.90;3.77;;;13.00;90.60;;;;;;4995165;28;20453;-78
2022/05/04 07:48:05;;;;;;;8.70;3.20;;;13.20;90.50;;;;;;4996432;28;20437;-78
2022/05/04 07:50:33;;;;;;;9.13;3.63;;;13.40;90.50;;;;;;4996499;28;20492;-78
2022/05/04 07:53:03;;;;;;;9.67;3.80;;;13.60;90.40;;;;;;5011981;28;20452;-79
2022/05/04 07:55:31;;;;;;;8.47;3.50;;;13.90;90.20;;;;;;4995114;28;20843;-78
2022/05/04 07:57:59;;;;;;;9.70;3.77;;;14.10;90.30;;;;;;4994878;28;20455;-78
2022/05/04 08:06:00;;;;;;;11.30;3.97;;;14.70;89.90;;;;;;5012536;28;20496;-78
2022/05/04 08:08:28;;;;;;;8.20;3.30;;;14.70;89.10;;;;;;5000515;28;20486;-78
2022/05/04 08:11:03;;;;;;;9.80;3.50;;;14.70;88.90;;;;;;5016014;28;20440;-78
2022/05/04 08:13:32;;;;;;;9.27;3.50;;;14.60;88.30;;;;;;5003820;28;20468;-78
2022/05/04 08:16:00;;;;;;;9.23;4.07;;;14.60;88.40;;;;;;5011921;28;20451;-79
2022/05/04 08:18:30;;;;;;;9.70;3.63;;;14.60;88.60;;;;;;4996937;28;20524;-78
2022/05/04 08:20:59;;;;;;;10.83;3.90;;;14.80;88.60;;;;;;4995792;28;20499;-78
2022/05/04 08:23:27;;;;;;;10.13;3.50;;;15.10;88.40;;;;;;4995006;28;20995;-79
2022/05/04 08:25:56;;;;;;;8.30;3.80;;;15.20;87.60;;;;;;5000442;28;20452;-78
2022/05/04 08:28:24;;;;;;;8.30;4.13;;;15.30;87.60;;;;;;5014147;28;20456;-79
2022/05/04 08:30:52;;;;;;;9.00;4.50;;;15.40;87.40;;;;;;4991338;28;20460;-79
2022/05/04 08:33:20;;;;;;;9.83;4.30;;;15.60;87.50;;;;;;4976520;28;20430;-78
2022/05/04 08:35:50;;;;;;;9.00;4.07;;;15.80;87.30;;;;;;4975805;28;20512;-79
2022/05/04 08:38:18;;;;;;;11.13;4.67;;;15.90;87.00;;;;;;4976083;28;20939;-79
2022/05/04 08:40:47;;;;;;;10.33;4.93;;;15.90;86.60;;;;;;5001212;28;20468;-79
2022/05/04 08:43:16;;;;;;;12.30;4.43;;;16.00;86.60;;;;;;5017338;28;20474;-79
2022/05/04 08:45:45;;;;;;;10.87;4.50;;;16.10;86.70;;;;;;5010356;28;20423;-79
2022/05/04 08:48:13;;;;;;;12.10;4.90;;;16.20;86.60;;;;;;5006226;28;20425;-79
2022/05/04 08:50:41;;;;;;;9.47;4.40;;;16.20;85.80;;;;;;4995632;28;20451;-79
2022/05/04 08:53:14;;;;;;;9.77;4.90;;;16.20;85.70;;;;;;4996381;28;20434;-79
2022/05/04 08:55:42;;;;;;;10.20;5.63;;;16.30;85.90;;;;;;4997533;28;20431;-79
2022/05/04 08:58:12;;;;;;;11.60;5.80;;;16.40;85.80;;;;;;4997176;28;20449;-79
2022/05/04 09:00:40;;;;;;;10.57;5.63;;;16.60;85.90;;;;;;4996808;28;20473;-79
2022/05/04 09:03:08;;;;;;;13.00;6.50;;;16.70;85.50;;;;;;4997418;28;20416;-79
2022/05/04 09:05:40;;;;;;;8.60;4.90;;;16.80;85.00;;;;;;4996835;28;20443;-80
2022/05/04 09:08:10;;;;;;;9.30;5.00;;;16.80;85.10;;;;;;4997247;28;20433;-80
2022/05/04 09:10:46;;;;;;;9.73;4.97;;;16.90;84.60;;;;;;4977025;28;20479;-80
2022/05/04 09:13:14;;;;;;;12.93;5.60;;;17.00;84.60;;;;;;4993450;28;20466;-79
2022/05/04 09:15:42;;;;;;;11.97;6.27;;;17.00;83.60;;;;;;5015366;28;20542;-80
2022/05/04 09:18:17;;;;;;;11.73;5.60;;;16.90;82.90;;;;;;5015052;28;20422;-80
2022/05/04 09:20:55;;;;;;;9.83;4.60;;;16.80;82.40;;;;;;5015787;28;20540;-80
2022/05/04 09:23:28;;;;;;;12.17;5.67;;;16.60;82.70;;;;;;5000885;28;20535;-80
2022/05/04 09:26:02;;;;;;;11.20;5.80;;;16.70;82.90;;;;;;4996886;28;20449;-79
2022/05/04 09:28:30;;;;;;;9.70;5.10;;;16.70;82.30;;;;;;5013864;28;20539;-79
2022/05/04 09:31:00;;;;;;;12.87;6.27;;;16.70;82.60;;;;;;5014303;28;20575;-79
2022/05/04 09:33:31;;;;;;;10.80;5.70;;;16.80;82.30;;;;;;5013781;28;20430;-80
2022/05/04 09:36:01;;;;;;;10.30;5.27;;;16.80;82.30;;;;;;5014547;28;20891;-80
2022/05/04 09:46:51;;;;;;;12.03;6.13;;;17.10;82.00;;;;;;5014630;28;20429;-80
2022/05/04 09:49:21;;;;;;;11.80;6.60;;;17.10;81.60;;;;;;5014680;28;20468;-80
2022/05/04 09:51:53;;;;;;;11.70;5.87;;;17.00;81.60;;;;;;5012760;28;20483;-80
2022/05/04 09:54:25;;;;;;;8.83;5.57;;;17.10;81.90;;;;;;4997628;28;20441;-79
2022/05/04 09:56:56;;;;;;;12.80;6.30;;;17.20;81.80;;;;;;5004570;28;20479;-80
2022/05/04 09:59:29;;;;;;;9.77;5.30;;;17.30;81.00;;;;;;5016175;28;20476;-80
2022/05/04 10:01:59;;;;;;;20.67;6.90;;;17.20;80.80;;;;;;5013444;28;20452;-80
2022/05/04 10:04:28;;;;;;;11.67;5.63;;;17.20;80.60;;;;;;5015446;28;20910;-80
2022/05/04 10:07:10;;;;;;;10.23;5.40;;;17.00;80.40;;;;;;5015170;28;20426;-80
2022/05/04 10:09:41;;;;;;;11.93;7.20;;;17.00;80.30;;;;;;5015980;28;20999;-80
2022/05/04 10:12:11;;;;;;;14.97;6.67;;;17.10;80.50;;;;;;5016651;28;20411;-80
2022/05/04 10:14:43;;;;;;;10.93;6.33;;;17.30;81.00;;;;;;4994932;28;20445;-80
2022/05/04 10:17:14;;;;;;;11.67;5.53;;;17.50;81.10;;;;;;4997255;28;20521;-80
2022/05/04 10:19:47;;;;;;;9.17;4.97;;;17.60;80.60;;;;;;4998707;28;20511;-80
2022/05/04 10:22:20;;;;;;;10.27;5.40;;;17.60;80.40;;;;;;5000198;28;20428;-80
2022/05/04 10:24:50;;;;;;;9.63;5.30;;;17.60;80.10;;;;;;4999460;28;20453;-80
2022/05/04 10:27:21;;;;;;;10.50;5.77;;;17.50;80.40;;;;;;5001528;28;20464;-80
2022/05/04 10:32:37;;;;;;;11.17;6.40;;;17.40;80.30;;;;;;5015870;28;20444;-80
2022/05/04 10:35:23;;;;;;;11.00;6.30;;;17.50;80.50;;;;;;5014781;28;20539;-80
2022/05/04 10:38:10;;;;;;;9.70;5.80;;;17.50;80.40;;;;;;5014580;28;20486;-80
2022/05/04 10:40:43;;;;;;;11.20;5.87;;;17.50;79.80;;;;;;5015650;28;20965;-80
2022/05/04 10:43:13;;;;;;;11.80;6.40;;;17.50;80.00;;;;;;5020073;28;20816;-79
2022/05/04 10:45:44;;;;;;;10.07;5.80;;;17.40;79.60;;;;;;5019428;28;20485;-79
2022/05/04 10:48:22;;;;;;;9.70;6.33;;;17.30;79.20;;;;;;5010944;28;20526;-79
2022/05/04 10:50:57;;;;;;;11.30;6.40;;;17.10;79.40;;;;;;5003498;28;20482;-79
2022/05/04 10:53:43;;;;;;;12.37;6.50;;;17.10;79.80;;;;;;5018032;28;20448;-79
2022/05/04 10:56:16;;;;;;;10.07;5.43;;;17.10;79.60;;;;;;5019403;28;20432;-79
2022/05/04 10:58:54;;;;;;;24.13;8.00;;;17.10;79.60;;;;;;5020311;28;20420;-79
2022/05/04 11:01:24;;;;;;;16.90;6.50;;;17.10;79.70;;;;;;5009977;28;20464;-79
2022/05/04 11:03:57;;;;;;;9.87;6.07;;;17.10;79.60;;;;;;5010985;28;20449;-79
2022/05/04 11:06:28;;;;;;;14.27;6.73;;;17.10;79.70;;;;;;5019601;28;20463;-78
2022/05/04 11:08:59;;;;;;;14.13;7.13;;;17.10;79.80;;;;;;5018118;28;20483;-78
2022/05/04 11:11:32;;;;;;;9.07;6.33;;;17.10;79.40;;;;;;5007661;28;20522;-78
2022/05/04 11:14:00;;;;;;;10.93;6.53;;;17.10;79.10;;;;;;5007598;28;20423;-78
2022/05/04 11:16:29;;;;;;;10.93;6.37;;;17.20;79.10;;;;;;5018090;28;20490;-78
2022/05/04 11:18:59;;;;;;;14.17;7.20;;;17.30;79.20;;;;;;5017970;28;20538;-78
2022/05/04 11:21:29;;;;;;;11.47;6.43;;;17.40;79.30;;;;;;5008996;28;20532;-80
2022/05/04 11:23:59;;;;;;;11.20;6.60;;;17.40;79.10;;;;;;5011863;28;20474;-79
2022/05/04 11:26:36;;;;;;;11.63;6.83;;;17.40;79.10;;;;;;5023452;28;20451;-80
2022/05/04 11:29:09;;;;;;;12.33;6.43;;;17.40;78.70;;;;;;5007784;28;20567;-80
2022/05/04 11:31:38;;;;;;;10.77;6.23;;;17.30;78.90;;;;;;5019251;28;20464;-80
2022/05/04 11:34:06;;;;;;;10.80;6.03;;;17.40;79.00;;;;;;5003977;28;20547;-80
2022/05/04 11:36:34;;;;;;;12.90;6.90;;;17.40;78.60;;;;;;5003376;28;20490;-79
2022/05/04 11:39:04;;;;;;;10.70;6.93;;;17.30;78.20;;;;;;4993479;28;20481;-79
2022/05/04 11:41:34;;;;;;;11.83;7.40;;;17.20;78.40;;;;;;5033155;28;20548;-79
2022/05/04 11:44:02;;;;;;;10.50;6.87;;;17.30;78.60;;;;;;5004546;28;20543;-79
2022/05/04 11:46:31;;;;;;;10.53;6.80;;;17.30;78.90;;;;;;5005929;28;20861;-79
2022/05/04 11:48:59;;;;;;;10.13;7.50;;;17.30;78.90;;;;;;5002102;28;20483;-78
2022/05/04 11:51:30;;;;;;;11.10;6.60;;;17.40;78.30;;;;;;5001769;28;20439;-78
2022/05/04 11:53:58;;;;;;;11.77;7.70;;;17.40;78.10;;;;;;4999121;28;20511;-79
2022/05/04 11:56:26;;;;;;;11.57;8.33;;;17.40;78.30;;;;;;5016489;28;20524;-79
2022/05/04 11:58:56;;;;;;;11.80;6.90;;;17.40;78.40;;;;;;4999269;28;20473;-79
2022/05/04 12:01:24;;;;;;;14.90;7.73;;;17.50;78.40;;;;;;4998848;28;20972;-79
2022/05/04 12:03:54;;;;;;;13.07;8.20;;;17.50;78.30;;;;;;4998392;28;20452;-79
2022/05/04 12:06:23;;;;;;;12.30;7.77;;;17.50;78.20;;;;;;5007827;28;20990;-79
2022/05/04 12:08:51;;;;;;;11.27;7.27;;;17.50;77.90;;;;;;5010780;28;20466;-79
2022/05/04 12:11:19;;;;;;;10.97;6.60;;;17.40;77.90;;;;;;4995948;28;20573;-79
2022/05/04 12:13:52;;;;;;;10.30;7.00;;;17.40;78.00;;;;;;5006280;28;20455;-78
2022/05/04 12:16:22;;;;;;;10.80;7.10;;;17.30;77.70;;;;;;5016467;28;20428;-79
2022/05/04 12:18:51;;;;;;;11.77;6.97;;;17.30;77.80;;;;;;5015269;28;20776;-79
2022/05/04 12:21:21;;;;;;;12.80;7.67;;;17.30;77.90;;;;;;5016446;28;20443;-79
2022/05/04 12:23:50;;;;;;;13.53;8.30;;;17.30;77.90;;;;;;5015779;28;20527;-79
2022/05/04 12:26:19;;;;;;;11.20;7.10;;;17.30;78.00;;;;;;5001538;28;20984;-79
2022/05/04 12:33:08;;;;;;;11.07;7.83;;;17.40;77.80;;;;;;5014221;28;20444;-79
2022/05/04 12:34:35;;;;;;;10.53;7.13;;;17.40;77.70;;;;;;5014792;28;20458;-79
2022/05/04 12:37:04;;;;;;;14.00;7.37;;;17.30;77.60;;;;;;5014602;28;20447;-78
2022/05/04 12:39:32;;;;;;;12.70;7.90;;;17.40;77.60;;;;;;5013628;28;20434;-79
2022/05/04 12:42:00;;;;;;;12.20;8.00;;;17.40;77.70;;;;;;5013670;28;20519;-78
2022/05/04 12:44:33;;;;;;;11.10;7.90;;;17.30;77.20;;;;;;4999681;28;20441;-79
2022/05/04 12:47:04;;;;;;;12.30;7.93;;;17.30;77.30;;;;;;5004819;28;20428;-79
2022/05/04 12:49:34;;;;;;;10.80;8.50;;;17.30;77.30;;;;;;5003606;28;20483;-79
2022/05/04 12:52:03;;;;;;;11.57;7.70;;;17.30;77.30;;;;;;5020773;28;20434;-79
2022/05/04 12:54:32;;;;;;;12.40;6.83;;;17.40;77.40;;;;;;5007003;28;20456;-79
2022/05/04 12:57:02;;;;;;;9.50;6.07;;;17.40;77.70;;;;;;4994555;28;20539;-79
2022/05/04 12:59:30;;;;;;;16.90;8.10;;;17.40;77.70;;;;;;4994652;28;20864;-78
2022/05/04 13:01:59;;;;;;;13.87;7.90;;;17.40;77.10;;;;;;4996273;28;20475;-79
2022/05/04 13:04:29;;;;;;;11.67;7.73;;;17.30;77.10;;;;;;4994295;28;20445;-79
2022/05/04 13:06:57;;;;;;;11.47;7.67;;;17.30;77.20;;;;;;5002870;28;20496;-79
2022/05/04 13:09:25;;;;;;;13.53;7.90;;;17.30;77.10;;;;;;4994639;28;20477;-79
2022/05/04 13:11:54;;;;;;;12.67;7.57;;;17.30;77.10;;;;;;5011283;28;20844;-79
2022/05/04 13:14:23;;;;;;;14.07;8.13;;;17.30;77.10;;;;;;4995431;28;20467;-79
2022/05/04 13:16:51;;;;;;;13.97;8.20;;;17.30;77.00;;;;;;4993182;28;20502;-78
2022/05/04 13:19:21;;;;;;;14.57;7.80;;;17.30;77.10;;;;;;4992504;28;20473;-78
2022/05/04 13:21:50;;;;;;;13.80;8.70;;;17.30;77.20;;;;;;4993611;28;20639;-78
2022/05/04 13:24:19;;;;;;;13.47;7.70;;;17.20;76.80;;;;;;5010336;28;20501;-78
2022/05/04 13:26:47;;;;;;;13.10;7.70;;;17.10;76.90;;;;;;5009904;28;20499;-78
2022/05/04 13:29:15;;;;;;;14.73;8.37;;;17.10;77.00;;;;;;5013014;28;20471;-78
2022/05/04 13:31:43;;;;;;;12.57;8.63;;;17.10;77.10;;;;;;5013962;28;20472;-78